AFA189 RCFN-RCFN

Flight info

Callsign AFA189
Flight time 1h 36m
Altitude 3000
Route DCT C8 DCT
Aircraft DA40/L-SBDFGRY/LB2

Departure

Time 2026-04-23 09:15
Airport Taitung Airport (RCFN)

Arrival

Time 2026-04-23 10:51
Airport Taitung Airport (RCFN)
Time Latitude Longitude Altitude Speed Heading
2026-04-23 08:44 22.75939 121.10328 140 ft 0 kts 39°
2026-04-23 09:04 22.75945 121.10344 140 ft 5 kts 111°
2026-04-23 09:04 22.75913 121.10371 140 ft 5 kts 183°
2026-04-23 09:04 22.75858 121.10330 141 ft 17 kts 218°
2026-04-23 09:05 22.75731 121.10219 141 ft 29 kts 218°
2026-04-23 09:05 22.75556 121.10066 140 ft 36 kts 216°
2026-04-23 09:05 22.75355 121.09893 142 ft 34 kts 218°
2026-04-23 09:05 22.75190 121.09757 144 ft 26 kts 217°
2026-04-23 09:06 22.75070 121.09647 147 ft 20 kts 220°
2026-04-23 09:06 22.74972 121.09562 148 ft 17 kts 226°
2026-04-23 09:06 22.74941 121.09534 149 ft 17 kts 217°
2026-04-23 09:07 22.74701 121.09369 149 ft 0 kts 127°
2026-04-23 09:12 22.74698 121.09373 149 ft 7 kts 123°
2026-04-23 09:13 22.74671 121.09459 147 ft 0 kts 37°
2026-04-23 09:13 22.74673 121.09460 147 ft 6 kts 36°
2026-04-23 09:13 22.74847 121.09610 148 ft 56 kts 39°
2026-04-23 09:14 22.75221 121.09936 255 ft 74 kts 39°
2026-04-23 09:14 22.75612 121.10284 467 ft 70 kts 41°
2026-04-23 09:14 22.75979 121.10641 601 ft 69 kts 41°
2026-04-23 09:14 22.76374 121.10986 725 ft 77 kts 41°
2026-04-23 09:15 22.76779 121.11357 919 ft 77 kts 36°
2026-04-23 09:15 22.77308 121.11343 1108 ft 85 kts 326°
2026-04-23 09:15 22.77680 121.10838 1312 ft 85 kts 313°
2026-04-23 09:15 22.77859 121.10230 1482 ft 91 kts 262°
2026-04-23 09:16 22.77492 121.09669 1685 ft 90 kts 221°
2026-04-23 09:16 22.77000 121.09253 1868 ft 90 kts 216°
2026-04-23 09:16 22.76485 121.08875 2074 ft 89 kts 212°
2026-04-23 09:16 22.75933 121.08576 2307 ft 86 kts 204°
2026-04-23 09:17 22.75342 121.08401 2484 ft 91 kts 197°
2026-04-23 09:17 22.74707 121.08272 2664 ft 93 kts 197°
2026-04-23 09:17 22.74071 121.08146 2854 ft 94 kts 198°
2026-04-23 09:17 22.73411 121.08025 2988 ft 99 kts 197°
2026-04-23 09:18 22.72695 121.07901 3038 ft 110 kts 195°
2026-04-23 09:18 22.71909 121.07775 3054 ft 117 kts 195°
2026-04-23 09:18 22.71076 121.07629 3032 ft 123 kts 195°
2026-04-23 09:18 22.70231 121.07481 3016 ft 124 kts 195°
2026-04-23 09:19 22.69387 121.07322 3034 ft 121 kts 197°
2026-04-23 09:19 22.68561 121.07131 2997 ft 124 kts 198°
2026-04-23 09:19 22.67727 121.06955 3015 ft 121 kts 195°
2026-04-23 09:19 22.66866 121.06913 2960 ft 127 kts 184°
2026-04-23 09:20 22.66011 121.06808 2950 ft 122 kts 199°
2026-04-23 09:20 22.65191 121.06596 2956 ft 120 kts 200°
2026-04-23 09:20 22.64377 121.06385 2967 ft 120 kts 200°
2026-04-23 09:20 22.63575 121.06156 2975 ft 119 kts 202°
2026-04-23 09:21 22.62778 121.05903 2960 ft 120 kts 203°
2026-04-23 09:21 22.61984 121.05643 2959 ft 119 kts 202°
2026-04-23 09:21 22.61202 121.05394 2989 ft 117 kts 204°
2026-04-23 09:21 22.60428 121.05130 2977 ft 117 kts 205°
2026-04-23 09:22 22.59664 121.04821 2957 ft 117 kts 208°
2026-04-23 09:22 22.58912 121.04493 2954 ft 116 kts 208°
2026-04-23 09:22 22.58153 121.04189 2934 ft 117 kts 205°
2026-04-23 09:22 22.57378 121.03887 2905 ft 116 kts 207°
2026-04-23 09:23 22.56640 121.03555 2909 ft 115 kts 209°
2026-04-23 09:23 22.55913 121.03202 2913 ft 114 kts 207°
2026-04-23 09:23 22.55186 121.02910 2977 ft 111 kts 206°
2026-04-23 09:23 22.54462 121.02618 2994 ft 110 kts 207°
2026-04-23 09:24 22.53753 121.02303 2993 ft 112 kts 210°
2026-04-23 09:24 22.53051 121.01967 3025 ft 112 kts 211°
2026-04-23 09:24 22.52281 121.01731 3013 ft 116 kts 201°
2026-04-23 09:24 22.51519 121.01498 3043 ft 114 kts 205°
2026-04-23 09:25 22.50748 121.01236 3044 ft 114 kts 205°
2026-04-23 09:25 22.50012 121.00948 3047 ft 114 kts 208°
2026-04-23 09:25 22.49286 121.00623 3076 ft 113 kts 211°
2026-04-23 09:25 22.48540 121.00290 3017 ft 119 kts 205°
2026-04-23 09:26 22.47766 121.00013 3057 ft 115 kts 208°
2026-04-23 09:26 22.47014 120.99677 2992 ft 118 kts 210°
2026-04-23 09:26 22.46292 120.99296 3004 ft 114 kts 214°
2026-04-23 09:26 22.45590 120.98890 2975 ft 115 kts 214°
2026-04-23 09:27 22.44868 120.98509 2961 ft 115 kts 212°
2026-04-23 09:27 22.44164 120.98094 2906 ft 117 kts 214°
2026-04-23 09:27 22.43494 120.97635 2916 ft 113 kts 214°
2026-04-23 09:27 22.42773 120.97329 2973 ft 112 kts 205°
2026-04-23 09:28 22.42027 120.97061 2962 ft 114 kts 206°
2026-04-23 09:28 22.41276 120.96789 2990 ft 113 kts 206°
2026-04-23 09:28 22.40542 120.96498 2994 ft 113 kts 210°
2026-04-23 09:28 22.39815 120.96159 2987 ft 114 kts 210°
2026-04-23 09:29 22.39100 120.95819 3001 ft 112 kts 213°
2026-04-23 09:29 22.38632 120.95570 2977 ft 114 kts 212°
2026-04-23 09:29 22.37915 120.95205 2993 ft 114 kts 211°
2026-04-23 09:29 22.37203 120.94868 3011 ft 113 kts 211°
2026-04-23 09:30 22.36457 120.94556 2996 ft 114 kts 206°
2026-04-23 09:30 22.35721 120.94262 3028 ft 113 kts 209°
2026-04-23 09:30 22.34991 120.93944 3045 ft 112 kts 209°
2026-04-23 09:30 22.34235 120.93673 3031 ft 116 kts 205°
2026-04-23 09:31 22.33476 120.93423 3084 ft 113 kts 205°
2026-04-23 09:31 22.32701 120.93223 3084 ft 116 kts 200°
2026-04-23 09:31 22.31893 120.93111 3112 ft 117 kts 193°
2026-04-23 09:31 22.31063 120.93090 3105 ft 120 kts 190°
2026-04-23 09:32 22.30217 120.93160 3092 ft 124 kts 181°
2026-04-23 09:32 22.29365 120.93260 3096 ft 121 kts 185°
2026-04-23 09:32 22.28517 120.93314 3067 ft 124 kts 185°
2026-04-23 09:32 22.27663 120.93375 3076 ft 122 kts 186°
2026-04-23 09:33 22.26814 120.93422 3067 ft 123 kts 184°
2026-04-23 09:33 22.25959 120.93508 3051 ft 124 kts 183°
2026-04-23 09:33 22.25104 120.93599 3041 ft 123 kts 184°
2026-04-23 09:33 22.24250 120.93666 3046 ft 122 kts 184°
2026-04-23 09:34 22.23399 120.93743 3035 ft 124 kts 184°
2026-04-23 09:34 22.22541 120.93837 3047 ft 124 kts 181°
2026-04-23 09:34 22.21688 120.93950 3044 ft 124 kts 184°
2026-04-23 09:34 22.20847 120.93984 3044 ft 121 kts 190°
2026-04-23 09:35 22.20022 120.93894 3047 ft 119 kts 196°
2026-04-23 09:35 22.19179 120.93886 3033 ft 122 kts 187°
2026-04-23 09:35 22.18331 120.93904 3041 ft 121 kts 188°
2026-04-23 09:35 22.17493 120.93900 3038 ft 120 kts 192°
2026-04-23 09:36 22.16657 120.93848 3011 ft 123 kts 189°
2026-04-23 09:36 22.15810 120.93871 3041 ft 120 kts 188°
2026-04-23 09:36 22.14971 120.93878 3013 ft 122 kts 188°
2026-04-23 09:36 22.14112 120.93922 3009 ft 121 kts 186°
2026-04-23 09:37 22.13274 120.94012 2999 ft 124 kts 181°
2026-04-23 09:37 22.12418 120.94141 3012 ft 122 kts 182°
2026-04-23 09:37 22.11573 120.94248 2991 ft 123 kts 183°
2026-04-23 09:37 22.10725 120.94320 3008 ft 122 kts 185°
2026-04-23 09:38 22.09882 120.94385 3001 ft 122 kts 184°
2026-04-23 09:38 22.09036 120.94471 3000 ft 122 kts 184°
2026-04-23 09:38 22.08194 120.94550 2997 ft 121 kts 184°
2026-04-23 09:38 22.07356 120.94620 2994 ft 120 kts 186°
2026-04-23 09:39 22.06525 120.94627 2983 ft 119 kts 189°
2026-04-23 09:39 22.05690 120.94639 2978 ft 120 kts 187°
2026-04-23 09:39 22.04862 120.94655 2989 ft 119 kts 189°
2026-04-23 09:39 22.04047 120.94557 2983 ft 117 kts 201°
2026-04-23 09:40 22.03279 120.94327 3006 ft 114 kts 205°
2026-04-23 09:40 22.02531 120.94041 3000 ft 114 kts 208°
2026-04-23 09:40 22.01779 120.93766 2999 ft 115 kts 205°
2026-04-23 09:40 22.01025 120.93502 3014 ft 114 kts 206°
2026-04-23 09:41 22.00285 120.93230 3023 ft 112 kts 208°
2026-04-23 09:41 21.99541 120.92942 2999 ft 114 kts 209°
2026-04-23 09:41 21.98825 120.92640 3042 ft 109 kts 211°
2026-04-23 09:41 21.98115 120.92324 3000 ft 112 kts 209°
2026-04-23 09:42 21.97381 120.92071 3031 ft 111 kts 201°
2026-04-23 09:42 21.96614 120.91954 3048 ft 111 kts 197°
2026-04-23 09:42 21.95834 120.91847 3017 ft 114 kts 197°
2026-04-23 09:42 21.95055 120.91737 3058 ft 111 kts 198°
2026-04-23 09:43 21.94286 120.91605 3058 ft 112 kts 200°
2026-04-23 09:43 21.93526 120.91439 3087 ft 111 kts 202°
2026-04-23 09:43 21.92778 120.91244 3096 ft 110 kts 202°
2026-04-23 09:43 21.92024 120.91057 3094 ft 112 kts 201°
2026-04-23 09:44 21.91274 120.90875 3080 ft 113 kts 201°
2026-04-23 09:44 21.90495 120.90710 3065 ft 115 kts 199°
2026-04-23 09:44 21.89709 120.90563 3110 ft 113 kts 199°
2026-04-23 09:44 21.88947 120.90370 3093 ft 112 kts 207°
2026-04-23 09:45 21.88256 120.90031 3096 ft 110 kts 213°
2026-04-23 09:45 21.87573 120.89639 3022 ft 112 kts 219°
2026-04-23 09:45 21.87013 120.89088 3002 ft 107 kts 237°
2026-04-23 09:45 21.86696 120.88375 2978 ft 105 kts 254°
2026-04-23 09:46 21.86482 120.87623 2955 ft 106 kts 253°
2026-04-23 09:46 21.86289 120.86879 2986 ft 102 kts 256°
2026-04-23 09:46 21.86154 120.86115 2973 ft 104 kts 262°
2026-04-23 09:46 21.86043 120.85338 2932 ft 108 kts 259°
2026-04-23 09:47 21.86009 120.84558 2960 ft 104 kts 273°
2026-04-23 09:47 21.86164 120.83780 2979 ft 105 kts 282°
2026-04-23 09:47 21.86422 120.83051 2991 ft 107 kts 287°
2026-04-23 09:47 21.86678 120.82300 2958 ft 106 kts 282°
2026-04-23 09:48 21.86842 120.81537 3001 ft 102 kts 278°
2026-04-23 09:48 21.87011 120.80786 2957 ft 108 kts 281°
2026-04-23 09:48 21.87217 120.80003 2981 ft 106 kts 282°
2026-04-23 09:48 21.87419 120.79250 3034 ft 103 kts 282°
2026-04-23 09:49 21.87586 120.78515 3088 ft 104 kts 279°
2026-04-23 09:49 21.87740 120.77729 3006 ft 111 kts 281°
2026-04-23 09:49 21.87956 120.76931 3031 ft 109 kts 282°
2026-04-23 09:49 21.88168 120.76134 2980 ft 112 kts 283°
2026-04-23 09:50 21.88384 120.75335 2934 ft 110 kts 282°
2026-04-23 09:50 21.88589 120.74537 2877 ft 110 kts 283°
2026-04-23 09:50 21.88752 120.73754 2886 ft 106 kts 278°
2026-04-23 09:50 21.88934 120.72964 2767 ft 112 kts 281°
2026-04-23 09:51 21.89184 120.72184 2762 ft 108 kts 286°
2026-04-23 09:51 21.89451 120.71447 2796 ft 105 kts 284°
2026-04-23 09:51 21.89701 120.70757 2793 ft 95 kts 292°
2026-04-23 09:51 21.90108 120.70201 2749 ft 94 kts 306°
2026-04-23 09:52 21.90646 120.69805 2662 ft 102 kts 324°
2026-04-23 09:52 21.91392 120.69582 2451 ft 116 kts 340°
2026-04-23 09:52 21.92210 120.69496 2296 ft 119 kts 346°
2026-04-23 09:52 21.93031 120.69463 2172 ft 118 kts 348°
2026-04-23 09:53 21.93845 120.69442 2052 ft 117 kts 348°
2026-04-23 09:53 21.94640 120.69399 1972 ft 113 kts 346°
2026-04-23 09:53 21.95441 120.69365 1799 ft 118 kts 348°
2026-04-23 09:53 21.96261 120.69320 1616 ft 121 kts 349°
2026-04-23 09:54 21.97113 120.69359 1524 ft 123 kts
2026-04-23 09:54 21.97909 120.69751 1468 ft 129 kts 30°
2026-04-23 09:54 21.98593 120.70384 1440 ft 124 kts 38°
2026-04-23 09:54 21.99187 120.71028 1477 ft 121 kts 42°
2026-04-23 09:55 21.99774 120.71658 1447 ft 120 kts 39°
2026-04-23 09:55 22.00304 120.72318 1413 ft 114 kts 47°
2026-04-23 09:55 22.00803 120.72861 1365 ft 87 kts 44°
2026-04-23 09:55 22.01193 120.73333 983 ft 85 kts 49°
2026-04-23 09:56 22.01611 120.73760 672 ft 86 kts 34°
2026-04-23 09:56 22.02104 120.74105 502 ft 83 kts 22°
2026-04-23 09:56 22.02679 120.74175 334 ft 83 kts 348°
2026-04-23 09:56 22.03178 120.73878 187 ft 83 kts 317°
2026-04-23 09:57 22.03605 120.73472 63 ft 78 kts 318°
2026-04-23 09:57 22.03931 120.73163 41 ft 53 kts 320°
2026-04-23 09:57 22.04285 120.72825 99 ft 77 kts 319°
2026-04-23 09:57 22.04676 120.72451 332 ft 74 kts 317°
2026-04-23 09:58 22.05062 120.72056 500 ft 81 kts 317°
2026-04-23 09:58 22.05494 120.71623 668 ft 84 kts 317°
2026-04-23 09:58 22.05789 120.71115 889 ft 83 kts 272°
2026-04-23 09:58 22.05503 120.70555 1023 ft 94 kts 230°
2026-04-23 09:59 22.04982 120.70136 1058 ft 98 kts 190°
2026-04-23 09:59 22.04334 120.70411 1024 ft 105 kts 139°
2026-04-23 09:59 22.03805 120.70962 998 ft 109 kts 137°
2026-04-23 09:59 22.03230 120.71516 939 ft 113 kts 139°
2026-04-23 10:00 22.02670 120.72063 1020 ft 100 kts 137°
2026-04-23 10:00 22.02171 120.72575 1021 ft 98 kts 136°
2026-04-23 10:00 22.01696 120.73110 989 ft 99 kts 131°
2026-04-23 10:00 22.01526 120.73781 854 ft 97 kts 73°
2026-04-23 10:01 22.01937 120.74294 724 ft 89 kts 37°
2026-04-23 10:01 22.02477 120.74445 550 ft 81 kts 346°
2026-04-23 10:01 22.02941 120.74083 328 ft 84 kts 317°
2026-04-23 10:01 22.03383 120.73685 123 ft 82 kts 320°
2026-04-23 10:02 22.03760 120.73330 43 ft 57 kts 319°
2026-04-23 10:02 22.04000 120.73103 41 ft 37 kts 318°
2026-04-23 10:02 22.04288 120.72831 47 ft 74 kts 319°
2026-04-23 10:02 22.04677 120.72458 268 ft 71 kts 316°
2026-04-23 10:03 22.05039 120.72070 453 ft 76 kts 315°
2026-04-23 10:03 22.05434 120.71642 592 ft 85 kts 316°
2026-04-23 10:03 22.05825 120.71189 806 ft 83 kts 295°
2026-04-23 10:03 22.05711 120.70607 1023 ft 83 kts 234°
2026-04-23 10:04 22.05272 120.70124 1068 ft 95 kts 202°
2026-04-23 10:04 22.04640 120.70331 1021 ft 102 kts 140°
2026-04-23 10:04 22.04102 120.70834 1011 ft 104 kts 140°
2026-04-23 10:04 22.03543 120.71341 1003 ft 104 kts 141°
2026-04-23 10:05 22.02995 120.71836 1023 ft 101 kts 141°
2026-04-23 10:05 22.02475 120.72318 1034 ft 95 kts 136°
2026-04-23 10:05 22.02037 120.72842 930 ft 93 kts 129°
2026-04-23 10:05 22.01727 120.73443 810 ft 90 kts 98°
2026-04-23 10:06 22.01858 120.74079 717 ft 89 kts 55°
2026-04-23 10:06 22.02333 120.74469 590 ft 83 kts 10°
2026-04-23 10:06 22.02842 120.74196 357 ft 85 kts 316°
2026-04-23 10:06 22.03269 120.73789 158 ft 82 kts 320°
2026-04-23 10:07 22.03698 120.73387 49 ft 78 kts 319°
2026-04-23 10:07 22.04024 120.73082 41 ft 54 kts 317°
2026-04-23 10:07 22.04364 120.72757 85 ft 76 kts 319°
2026-04-23 10:07 22.04743 120.72393 308 ft 74 kts 317°
2026-04-23 10:08 22.05124 120.72012 493 ft 78 kts 319°
2026-04-23 10:08 22.05526 120.71592 678 ft 79 kts 315°
2026-04-23 10:08 22.05910 120.71181 881 ft 77 kts 315°
2026-04-23 10:09 22.06233 120.70154 1269 ft 77 kts 262°
2026-04-23 10:09 22.06136 120.69556 1436 ft 80 kts 260°
2026-04-23 10:09 22.06004 120.68953 1606 ft 84 kts 256°
2026-04-23 10:09 22.05830 120.68371 1841 ft 80 kts 256°
2026-04-23 10:10 22.05583 120.67815 2083 ft 77 kts 240°
2026-04-23 10:10 22.05184 120.67414 2251 ft 84 kts 221°
2026-04-23 10:10 22.04609 120.67179 2437 ft 92 kts 197°
2026-04-23 10:10 22.03916 120.67074 2451 ft 112 kts 197°
2026-04-23 10:11 22.03153 120.66939 2432 ft 113 kts 199°
2026-04-23 10:11 22.02379 120.66808 2440 ft 111 kts 198°
2026-04-23 10:11 22.01630 120.66672 2459 ft 108 kts 197°
2026-04-23 10:11 22.00887 120.66613 2522 ft 109 kts 191°
2026-04-23 10:12 22.00082 120.66767 2489 ft 122 kts 172°
2026-04-23 10:12 21.99277 120.67063 2513 ft 124 kts 171°
2026-04-23 10:12 21.98451 120.67364 2524 ft 125 kts 173°
2026-04-23 10:12 21.97613 120.67574 2542 ft 123 kts 180°
2026-04-23 10:13 21.96764 120.67734 2505 ft 128 kts 181°
2026-04-23 10:13 21.95879 120.67892 2491 ft 127 kts 180°
2026-04-23 10:13 21.95018 120.68059 2507 ft 126 kts 180°
2026-04-23 10:13 21.94166 120.68204 2546 ft 122 kts 181°
2026-04-23 10:14 21.93317 120.68352 2549 ft 124 kts 180°
2026-04-23 10:14 21.92490 120.68604 2596 ft 126 kts 169°
2026-04-23 10:14 21.91657 120.68923 2592 ft 127 kts 172°
2026-04-23 10:14 21.90832 120.69368 2534 ft 136 kts 156°
2026-04-23 10:15 21.90098 120.70008 2535 ft 139 kts 142°
2026-04-23 10:15 21.89523 120.70873 2518 ft 144 kts 123°
2026-04-23 10:15 21.89175 120.71899 2465 ft 149 kts 108°
2026-04-23 10:15 21.89034 120.72616 2477 ft 147 kts 103°
2026-04-23 10:16 21.88857 120.73701 2429 ft 148 kts 101°
2026-04-23 10:16 21.88719 120.74790 2438 ft 146 kts 102°
2026-04-23 10:16 21.88514 120.76228 2456 ft 145 kts 102°
2026-04-23 10:16 21.88412 120.76943 2440 ft 147 kts 102°
2026-04-23 10:17 21.88274 120.78035 2447 ft 146 kts 101°
2026-04-23 10:17 21.88141 120.79123 2473 ft 145 kts 100°
2026-04-23 10:17 21.88018 120.80179 2513 ft 142 kts 100°
2026-04-23 10:17 21.87912 120.81246 2519 ft 143 kts 98°
2026-04-23 10:18 21.87836 120.82322 2476 ft 145 kts 99°
2026-04-23 10:18 21.87714 120.83395 2477 ft 143 kts 100°
2026-04-23 10:18 21.87582 120.84466 2457 ft 146 kts 101°
2026-04-23 10:18 21.87462 120.85544 2492 ft 143 kts 99°
2026-04-23 10:19 21.87424 120.86631 2438 ft 148 kts 90°
2026-04-23 10:19 21.87628 120.87701 2473 ft 143 kts 69°
2026-04-23 10:19 21.88142 120.88595 2468 ft 144 kts 43°
2026-04-23 10:19 21.88943 120.89224 2468 ft 140 kts 22°
2026-04-23 10:20 21.89806 120.89666 2497 ft 137 kts 15°
2026-04-23 10:20 21.90701 120.89992 2482 ft 136 kts
2026-04-23 10:20 21.91601 120.90230 2531 ft 132 kts
2026-04-23 10:20 21.92484 120.90480 2513 ft 133 kts
2026-04-23 10:21 21.93385 120.90704 2502 ft 134 kts
2026-04-23 10:21 21.94301 120.90921 2481 ft 134 kts
2026-04-23 10:21 21.95219 120.91106 2471 ft 134 kts
2026-04-23 10:21 21.96119 120.91227 2517 ft 128 kts
2026-04-23 10:22 21.97022 120.91328 2481 ft 135 kts
2026-04-23 10:22 21.97960 120.91492 2486 ft 137 kts
2026-04-23 10:22 21.98901 120.91694 2475 ft 138 kts
2026-04-23 10:22 21.99844 120.91884 2469 ft 138 kts 10°
2026-04-23 10:23 22.00781 120.92113 2469 ft 137 kts
2026-04-23 10:23 22.01718 120.92293 2468 ft 137 kts
2026-04-23 10:23 22.02671 120.92423 2424 ft 139 kts
2026-04-23 10:23 22.03621 120.92539 2453 ft 135 kts
2026-04-23 10:24 22.04540 120.92666 2485 ft 134 kts
2026-04-23 10:24 22.05479 120.92787 2472 ft 135 kts
2026-04-23 10:24 22.06413 120.92851 2479 ft 134 kts 357°
2026-04-23 10:24 22.07351 120.92869 2476 ft 135 kts
2026-04-23 10:25 22.08290 120.92928 2467 ft 135 kts 359°
2026-04-23 10:25 22.09226 120.92958 2464 ft 134 kts 356°
2026-04-23 10:25 22.10150 120.92942 2526 ft 129 kts 355°
2026-04-23 10:25 22.11053 120.92931 2530 ft 131 kts 356°
2026-04-23 10:26 22.11992 120.92930 2458 ft 137 kts 356°
2026-04-23 10:26 22.12923 120.92903 2498 ft 133 kts 354°
2026-04-23 10:26 22.13851 120.92858 2478 ft 134 kts 353°
2026-04-23 10:26 22.14783 120.92860 2478 ft 134 kts 357°
2026-04-23 10:27 22.15710 120.92854 2462 ft 134 kts 354°
2026-04-23 10:27 22.16647 120.92787 2448 ft 135 kts 354°
2026-04-23 10:27 22.17581 120.92814 2439 ft 136 kts 360°
2026-04-23 10:27 22.18520 120.92886 2446 ft 135 kts
2026-04-23 10:28 22.19457 120.93002 2429 ft 136 kts
2026-04-23 10:28 22.20381 120.93113 2471 ft 133 kts
2026-04-23 10:28 22.21318 120.93202 2426 ft 137 kts
2026-04-23 10:28 22.22249 120.93254 2455 ft 132 kts 358°
2026-04-23 10:29 22.23183 120.93267 2431 ft 133 kts 356°
2026-04-23 10:29 22.24096 120.93247 2463 ft 132 kts 355°
2026-04-23 10:29 22.25019 120.93199 2444 ft 133 kts 351°
2026-04-23 10:29 22.25931 120.93072 2465 ft 131 kts 347°
2026-04-23 10:30 22.26835 120.92926 2452 ft 132 kts 348°
2026-04-23 10:30 22.27751 120.92773 2436 ft 133 kts 346°
2026-04-23 10:30 22.28649 120.92580 2456 ft 131 kts 342°
2026-04-23 10:30 22.29569 120.92490 2448 ft 135 kts
2026-04-23 10:31 22.30478 120.92670 2479 ft 132 kts 11°
2026-04-23 10:31 22.31371 120.92959 2470 ft 134 kts 16°
2026-04-23 10:31 22.32256 120.93268 2471 ft 134 kts 17°
2026-04-23 10:31 22.33128 120.93652 2464 ft 136 kts 23°
2026-04-23 10:32 22.33977 120.94073 2442 ft 137 kts 24°
2026-04-23 10:32 22.34848 120.94498 2460 ft 136 kts 22°
2026-04-23 10:32 22.35715 120.94894 2470 ft 136 kts 21°
2026-04-23 10:32 22.36584 120.95294 2482 ft 134 kts 21°
2026-04-23 10:33 22.37443 120.95679 2503 ft 134 kts 20°
2026-04-23 10:33 22.38319 120.96024 2501 ft 134 kts 16°
2026-04-23 10:33 22.39203 120.96334 2499 ft 133 kts 16°
2026-04-23 10:33 22.40089 120.96646 2508 ft 134 kts 15°
2026-04-23 10:34 22.40986 120.96902 2516 ft 134 kts 13°
2026-04-23 10:34 22.41873 120.97211 2519 ft 134 kts 17°
2026-04-23 10:34 22.42767 120.97511 2531 ft 135 kts 13°
2026-04-23 10:34 22.43667 120.97763 2550 ft 133 kts 11°
2026-04-23 10:35 22.44581 120.97956 2536 ft 135 kts
2026-04-23 10:35 22.45489 120.98159 2575 ft 132 kts
2026-04-23 10:35 22.46402 120.98394 2521 ft 137 kts 12°
2026-04-23 10:35 22.47307 120.98688 2556 ft 134 kts 17°
2026-04-23 10:36 22.48183 120.99011 2566 ft 134 kts 16°
2026-04-23 10:36 22.49087 120.99321 2505 ft 137 kts 15°
2026-04-23 10:36 22.50007 120.99622 2468 ft 138 kts 16°
2026-04-23 10:36 22.50922 120.99945 2465 ft 137 kts 18°
2026-04-23 10:37 22.51819 121.00294 2452 ft 137 kts 19°
2026-04-23 10:37 22.52713 121.00675 2421 ft 139 kts 22°
2026-04-23 10:37 22.53589 121.01103 2423 ft 136 kts 23°
2026-04-23 10:37 22.54434 121.01537 2460 ft 134 kts 26°
2026-04-23 10:38 22.55266 121.01981 2485 ft 133 kts 26°
2026-04-23 10:38 22.56092 121.02452 2418 ft 139 kts 28°
2026-04-23 10:38 22.56940 121.02927 2452 ft 136 kts 26°
2026-04-23 10:38 22.57800 121.03356 2425 ft 137 kts 22°
2026-04-23 10:39 22.58664 121.03742 2496 ft 130 kts 21°
2026-04-23 10:39 22.59502 121.04097 2512 ft 130 kts 18°
2026-04-23 10:39 22.60355 121.04416 2506 ft 131 kts 17°
2026-04-23 10:39 22.61202 121.04734 2479 ft 124 kts 17°
2026-04-23 10:40 22.62020 121.05012 2387 ft 123 kts 15°
2026-04-23 10:40 22.62853 121.05242 2228 ft 126 kts 13°
2026-04-23 10:40 22.63711 121.05436 2093 ft 126 kts 11°
2026-04-23 10:40 22.64571 121.05591 1963 ft 124 kts 10°
2026-04-23 10:41 22.65420 121.05728 1817 ft 123 kts
2026-04-23 10:41 22.66268 121.05856 1675 ft 122 kts 10°
2026-04-23 10:41 22.67096 121.05974 1555 ft 120 kts
2026-04-23 10:41 22.67929 121.06100 1394 ft 121 kts
2026-04-23 10:42 22.68729 121.06217 1321 ft 109 kts 13°
2026-04-23 10:42 22.69416 121.06345 1245 ft 95 kts 14°
2026-04-23 10:42 22.70046 121.06456 1155 ft 88 kts 14°
2026-04-23 10:42 22.70611 121.06569 1050 ft 80 kts 14°
2026-04-23 10:43 22.71141 121.06696 939 ft 77 kts 18°
2026-04-23 10:43 22.71647 121.06883 830 ft 77 kts 26°
2026-04-23 10:43 22.72070 121.07201 783 ft 73 kts 39°
2026-04-23 10:43 22.72476 121.07537 717 ft 75 kts 39°
2026-04-23 10:44 22.72879 121.07892 623 ft 74 kts 41°
2026-04-23 10:44 22.73276 121.08246 517 ft 74 kts 39°
2026-04-23 10:44 22.73679 121.08603 437 ft 76 kts 38°
2026-04-23 10:44 22.74093 121.08953 346 ft 74 kts 37°
2026-04-23 10:45 22.74503 121.09311 233 ft 77 kts 40°
2026-04-23 10:45 22.74899 121.09655 151 ft 61 kts 41°
2026-04-23 10:45 22.75170 121.09890 142 ft 51 kts 37°
2026-04-23 10:45 22.75535 121.10192 236 ft 72 kts 39°
2026-04-23 10:46 22.75944 121.10518 472 ft 73 kts 38°
2026-04-23 10:46 22.76330 121.10848 732 ft 71 kts 43°
2026-04-23 10:46 22.76779 121.11172 857 ft 83 kts 22°
2026-04-23 10:46 22.77325 121.11018 1066 ft 91 kts 323°
2026-04-23 10:47 22.77742 121.10404 1068 ft 107 kts 288°
2026-04-23 10:47 22.77532 121.09651 1068 ft 114 kts 222°
2026-04-23 10:47 22.76921 121.09129 1090 ft 112 kts 216°
2026-04-23 10:47 22.76304 121.08620 1103 ft 109 kts 217°
2026-04-23 10:48 22.75723 121.08126 1113 ft 103 kts 217°
2026-04-23 10:48 22.75177 121.07647 1108 ft 103 kts 219°
2026-04-23 10:48 22.74620 121.07135 1088 ft 106 kts 219°
2026-04-23 10:48 22.74057 121.06627 1078 ft 105 kts 216°
2026-04-23 10:49 22.73403 121.06487 939 ft 97 kts 158°
2026-04-23 10:49 22.72966 121.06970 825 ft 85 kts 118°
2026-04-23 10:49 22.72733 121.07510 687 ft 79 kts 91°
2026-04-23 10:49 22.72980 121.07992 538 ft 75 kts 41°
2026-04-23 10:50 22.73379 121.08342 477 ft 74 kts 40°
2026-04-23 10:50 22.73781 121.08686 438 ft 74 kts 40°
2026-04-23 10:50 22.74170 121.09025 321 ft 72 kts 40°
2026-04-23 10:50 22.74560 121.09362 224 ft 74 kts 39°
2026-04-23 10:51 22.74939 121.09690 148 ft 59 kts 41°
2026-04-23 10:51 22.75189 121.09909 142 ft 37 kts 40°
2026-04-23 10:51 22.75362 121.10057 141 ft 29 kts 38°
2026-04-23 10:51 22.75514 121.10187 143 ft 26 kts 38°
2026-04-23 10:52 22.75653 121.10307 143 ft 25 kts 38°
2026-04-23 10:52 22.75786 121.10404 143 ft 19 kts 358°
2026-04-23 10:52 22.75864 121.10347 141 ft 9 kts 356°
2026-04-23 10:52 22.75916 121.10371 140 ft 7 kts 359°
2026-04-23 10:53 22.75950 121.10339 140 ft 7 kts 303°
2026-04-23 10:53 22.75942 121.10320 140 ft 4 kts 214°
2026-04-23 10:53 22.75944 121.10314 140 ft 0 kts 38°